createdAt,value
2019-02-26T00:01:50.489Z,103057.25
2019-02-26T00:04:21.070Z,103056.22
2019-02-26T00:06:51.491Z,103050.77
2019-02-26T00:09:24.752Z,103049.73
2019-02-26T00:11:54.123Z,103050.59
2019-02-26T00:14:24.876Z,103044.97
2019-02-26T00:16:55.639Z,103041.45
2019-02-26T00:19:25.573Z,103051.81
2019-02-26T00:21:55.366Z,103047.80
2019-02-26T00:24:25.348Z,103050.84
2019-02-26T00:26:55.584Z,103047.19
2019-02-26T00:29:27.617Z,103043.63
2019-02-26T00:31:57.850Z,103042.76
2019-02-26T00:34:27.787Z,103039.52
2019-02-26T00:36:59.460Z,103032.63
2019-02-26T00:39:31.374Z,103036.27
2019-02-26T00:42:02.710Z,103034.79
2019-02-26T00:44:35.293Z,103032.91
2019-02-26T00:47:06.679Z,103027.05
2019-02-26T00:49:36.782Z,103021.39
2019-02-26T00:52:08.693Z,103029.75
2019-02-26T00:54:38.604Z,103029.75
2019-02-26T00:57:09.456Z,103028.31
2019-02-26T00:59:41.169Z,103029.09
2019-02-26T01:02:12.010Z,103033.44
2019-02-26T01:04:43.865Z,103040.50
2019-02-26T01:07:13.497Z,103036.20
2019-02-26T01:09:43.444Z,103037.38
2019-02-26T01:12:14.463Z,103035.83
2019-02-26T01:14:46.368Z,103033.44
2019-02-26T01:17:18.858Z,103041.97
2019-02-26T01:19:49.093Z,103045.83
2019-02-26T01:22:19.048Z,103050.58
2019-02-26T01:24:49.792Z,103049.72
2019-02-26T01:27:20.667Z,103048.77
2019-02-26T01:29:51.793Z,103047.46
2019-02-26T01:32:24.601Z,103044.42
2019-02-26T01:34:54.220Z,103037.45
2019-02-26T01:37:25.352Z,103029.66
2019-02-26T01:39:56.175Z,103029.05
2019-02-26T01:42:27.111Z,103029.71
2019-02-26T01:44:57.827Z,103030.73
2019-02-26T01:47:28.514Z,103026.67
2019-02-26T01:49:59.382Z,103028.88
2019-02-26T01:52:29.443Z,103039.95
2019-02-26T01:55:00.738Z,103039.05
2019-02-26T01:57:32.354Z,103037.13
2019-02-26T02:00:06.924Z,103029.91
2019-02-26T02:02:38.009Z,103027.58
2019-02-26T02:05:07.951Z,103031.39
2019-02-26T02:07:37.881Z,103027.38
2019-02-26T02:10:09.836Z,103027.33
2019-02-26T02:12:41.485Z,103025.73
2019-02-26T02:15:12.379Z,103018.02
2019-02-26T02:17:43.884Z,103014.53
2019-02-26T02:20:18.036Z,103017.56
2019-02-26T02:22:46.892Z,103014.24
2019-02-26T02:25:16.846Z,103008.75
2019-02-26T02:27:49.773Z,103005.95
2019-02-26T02:30:26.621Z,103000.83
2019-02-26T02:32:54.080Z,102996.63
2019-02-26T02:35:22.090Z,102991.95
2019-02-26T02:37:53.530Z,102992.03
2019-02-26T02:40:23.650Z,102984.36
2019-02-26T02:42:53.612Z,102985.38
2019-02-26T02:45:23.897Z,102978.72
2019-02-26T02:47:57.672Z,102973.28
2019-02-26T02:50:25.571Z,102969.13
2019-02-26T02:52:59.227Z,102962.61
2019-02-26T02:55:28.491Z,102965.20
2019-02-26T02:58:00.461Z,102958.64
2019-02-26T03:00:32.258Z,102958.64
2019-02-26T03:03:02.517Z,102954.34
2019-02-26T03:05:35.204Z,102956.99
2019-02-26T03:08:05.229Z,102959.91
2019-02-26T03:10:37.251Z,102957.62
2019-02-26T03:13:07.227Z,102949.34
2019-02-26T03:15:37.853Z,102952.57
2019-02-26T03:18:09.909Z,102954.03
2019-02-26T03:20:40.448Z,102956.92
2019-02-26T03:23:15.688Z,102955.68
2019-02-26T03:25:44.562Z,102954.25
2019-02-26T03:28:15.321Z,102955.75
2019-02-26T03:30:45.296Z,102961.81
2019-02-26T03:33:15.285Z,102952.20
2019-02-26T03:35:45.157Z,102953.36
2019-02-26T03:38:17.809Z,102955.68
2019-02-26T03:40:49.293Z,102958.87
2019-02-26T03:43:18.770Z,102959.13
2019-02-26T03:45:48.735Z,102949.83
2019-02-26T03:48:20.088Z,102940.53
2019-02-26T03:50:50.579Z,102935.73
2019-02-26T03:53:25.566Z,102932.12
2019-02-26T03:55:52.625Z,102924.27
2019-02-26T03:58:23.561Z,102923.41
2019-02-26T04:00:54.017Z,102925.87
2019-02-26T04:03:23.980Z,102923.99
2019-02-26T04:05:57.180Z,102923.51
2019-02-26T04:08:27.161Z,102927.81
2019-02-26T04:10:59.357Z,102937.28
2019-02-26T04:13:29.443Z,102934.13
2019-02-26T04:16:04.593Z,102937.91
2019-02-26T04:18:34.889Z,102928.28
2019-02-26T04:21:06.035Z,102936.56
2019-02-26T04:23:38.931Z,102944.02
2019-02-26T04:26:47.380Z,102939.63
2019-02-26T04:29:46.733Z,102941.17
2019-02-26T04:32:43.579Z,102934.41
2019-02-26T04:36:09.739Z,102940.10
2019-02-26T04:39:16.476Z,102942.27
2019-02-26T04:41:56.024Z,102950.51
2019-02-26T04:44:50.000Z,102943.05
2019-02-26T04:47:26.786Z,102951.33
2019-02-26T04:49:57.255Z,102955.27
2019-02-26T04:52:29.604Z,102954.37
2019-02-26T04:55:00.676Z,102955.67
2019-02-26T04:57:31.050Z,102957.44
2019-02-26T05:00:20.052Z,102955.34
2019-02-26T05:02:50.019Z,102954.59
2019-02-26T05:05:22.440Z,102951.90
2019-02-26T05:07:52.316Z,102960.47
2019-02-26T05:10:24.309Z,102959.68
2019-02-26T05:12:57.233Z,102960.99
2019-02-26T05:15:27.567Z,102964.84
2019-02-26T05:17:58.126Z,102963.43
2019-02-26T05:20:28.101Z,102966.42
2019-02-26T05:23:01.043Z,102955.94
2019-02-26T05:25:31.518Z,102958.78
2019-02-26T05:28:03.794Z,102963.48
2019-02-26T05:30:34.539Z,102966.52
2019-02-26T05:33:05.573Z,102963.03
2019-02-26T05:35:37.841Z,102970.59
2019-02-26T05:38:09.532Z,102966.66
2019-02-26T05:40:40.407Z,102965.14
2019-02-26T05:43:10.872Z,102973.24
2019-02-26T05:45:40.835Z,102971.48
2019-02-26T05:48:12.480Z,102981.00
2019-02-26T05:50:44.790Z,102977.83
2019-02-26T05:53:15.231Z,102978.17
2019-02-26T05:55:48.572Z,102970.38
2019-02-26T05:58:19.383Z,102977.52
2019-02-26T06:00:48.596Z,102977.92
2019-02-26T06:03:18.871Z,102979.02
2019-02-26T06:05:51.893Z,102975.98
2019-02-26T06:08:25.732Z,102985.75
2019-02-26T06:10:53.691Z,102987.09
2019-02-26T06:13:23.728Z,102986.03
2019-02-26T06:15:55.299Z,102982.81
2019-02-26T06:18:25.688Z,102989.61
2019-02-26T06:20:56.704Z,102990.44
2019-02-26T06:23:28.173Z,102998.23
2019-02-26T06:26:02.296Z,103000.24
2019-02-26T06:28:35.400Z,102996.98
2019-02-26T06:31:02.912Z,102995.00
2019-02-26T06:33:36.081Z,102999.80
2019-02-26T06:36:06.401Z,102994.71
2019-02-26T06:38:36.445Z,102991.74
2019-02-26T06:41:06.750Z,102996.56
2019-02-26T06:43:39.648Z,102994.87
2019-02-26T06:46:11.532Z,102996.66
2019-02-26T06:48:40.288Z,102992.76
2019-02-26T06:51:10.271Z,102993.73
2019-02-26T06:53:40.214Z,102992.43
2019-02-26T06:56:10.195Z,102997.09
2019-02-26T06:58:42.408Z,102992.61
2019-02-26T07:01:14.244Z,103002.18
2019-02-26T07:03:43.796Z,103001.77
2019-02-26T07:06:13.805Z,102997.27
2019-02-26T07:08:45.004Z,103004.58
2019-02-26T07:11:15.684Z,103002.28
2019-02-26T07:13:46.492Z,103008.32
2019-02-26T07:16:18.110Z,103006.24
2019-02-26T07:18:48.457Z,103009.59
2019-02-26T07:21:18.397Z,103010.23
2019-02-26T07:23:48.389Z,103007.39
2019-02-26T07:26:20.728Z,103009.47
2019-02-26T07:28:51.089Z,103005.44
2019-02-26T07:31:24.193Z,103008.85
2019-02-26T07:33:55.736Z,103006.58
2019-02-26T07:36:27.660Z,103000.27
2019-02-26T07:38:57.343Z,102998.41
2019-02-26T07:41:30.341Z,102996.13
2019-02-26T07:44:00.927Z,102991.61
2019-02-26T07:46:30.872Z,102995.81
2019-02-26T07:49:04.592Z,102992.08
2019-02-26T07:51:36.246Z,102997.97
2019-02-26T07:54:05.634Z,103001.27
2019-02-26T07:56:36.065Z,102998.53
2019-02-26T07:59:09.417Z,103005.84
2019-02-26T08:01:39.782Z,102999.92
2019-02-26T08:04:11.619Z,102997.14
2019-02-26T08:06:41.320Z,102995.79
2019-02-26T08:09:13.953Z,102990.39
2019-02-26T08:11:44.408Z,103002.04
2019-02-26T08:14:16.107Z,103002.74
2019-02-26T08:16:49.221Z,103009.93
2019-02-26T08:19:18.326Z,103008.91
2019-02-26T08:21:50.248Z,103008.70
2019-02-26T08:24:23.829Z,103004.20
2019-02-26T08:26:51.940Z,103004.48
2019-02-26T08:29:24.538Z,103006.45
2019-02-26T08:31:54.938Z,103006.28
2019-02-26T08:34:26.211Z,103007.39
2019-02-26T08:36:56.556Z,103007.22
2019-02-26T08:39:26.611Z,103003.14
2019-02-26T08:42:10.110Z,103001.67
2019-02-26T08:44:40.539Z,103003.21
2019-02-26T08:47:13.900Z,103003.89
2019-02-26T08:49:45.650Z,102994.94
2019-02-26T08:52:17.495Z,102996.47
2019-02-26T08:54:47.862Z,102994.03
2019-02-26T08:57:19.199Z,102986.87
2019-02-26T08:59:50.443Z,102984.55
2019-02-26T09:02:21.065Z,102985.19
2019-02-26T09:04:51.668Z,102992.84
2019-02-26T09:07:23.619Z,102988.22
2019-02-26T09:09:55.354Z,102988.00
2019-02-26T09:12:27.231Z,102984.28
2019-02-26T09:14:57.695Z,102991.11
2019-02-26T09:17:30.427Z,102988.79
2019-02-26T09:20:09.431Z,102983.34
2019-02-26T09:22:32.755Z,102982.28
2019-02-26T09:25:04.919Z,102981.16
2019-02-26T09:27:42.577Z,102985.69
2019-02-26T09:30:11.713Z,102986.73
2019-02-26T09:32:42.872Z,102982.09
2019-02-26T09:35:16.267Z,102980.97
2019-02-26T09:37:47.921Z,102984.21
2019-02-26T09:40:20.091Z,102990.58
2019-02-26T09:42:53.733Z,102990.73
2019-02-26T09:45:23.654Z,102984.79
2019-02-26T09:47:55.644Z,102990.23
2019-02-26T09:50:25.384Z,102994.73
2019-02-26T09:52:58.236Z,102989.10
2019-02-26T09:55:27.025Z,102983.55
2019-02-26T09:57:57.015Z,102977.84
2019-02-26T10:00:29.448Z,102986.97
2019-02-26T10:02:58.787Z,102987.21
2019-02-26T10:05:28.739Z,102983.02
2019-02-26T10:08:00.523Z,102985.05
2019-02-26T10:10:33.501Z,102985.19
2019-02-26T10:13:04.703Z,102983.14
2019-02-26T10:15:37.293Z,102982.87
2019-02-26T10:18:09.381Z,102983.04
2019-02-26T10:20:38.920Z,102988.02
2019-02-26T10:23:08.948Z,102982.95
2019-02-26T10:25:39.031Z,102987.45
2019-02-26T10:28:11.498Z,102980.98
2019-02-26T10:30:41.734Z,102986.78
2019-02-26T10:33:11.956Z,102983.96
2019-02-26T10:35:45.101Z,102976.59
2019-02-26T10:38:14.996Z,102980.11
2019-02-26T10:40:53.482Z,102978.16
2019-02-26T10:43:16.967Z,102981.96
2019-02-26T10:45:47.444Z,102986.55
2019-02-26T10:48:21.908Z,102985.73
2019-02-26T10:50:51.928Z,102981.81
2019-02-26T10:53:22.758Z,102982.86
2019-02-26T10:55:53.056Z,102975.30
2019-02-26T10:58:23.546Z,102975.34
2019-02-26T11:00:55.574Z,102972.01
2019-02-26T11:03:26.050Z,102975.13
2019-02-26T11:05:56.649Z,102969.51
2019-02-26T11:08:29.637Z,102963.11
2019-02-26T11:10:58.433Z,102966.12
2019-02-26T11:13:28.409Z,102962.09
2019-02-26T11:15:59.863Z,102971.42
2019-02-26T11:18:30.176Z,102961.31
2019-02-26T11:21:00.136Z,102957.86
2019-02-26T11:23:31.402Z,102956.63
2019-02-26T11:26:01.711Z,102956.55
2019-02-26T11:28:32.928Z,102955.40
2019-02-26T11:31:03.383Z,102949.53
2019-02-26T11:33:33.823Z,102943.15
2019-02-26T11:36:05.534Z,102946.73
2019-02-26T11:38:37.521Z,102933.50
2019-02-26T11:41:07.917Z,102934.92
2019-02-26T11:43:38.177Z,102934.59
2019-02-26T11:46:08.762Z,102934.96
2019-02-26T11:48:38.844Z,102927.34
2019-02-26T11:51:08.817Z,102920.27
2019-02-26T11:53:38.838Z,102921.58
2019-02-26T11:56:08.797Z,102921.66
2019-02-26T11:58:38.803Z,102920.56
2019-02-26T12:01:14.044Z,102917.23
2019-02-26T12:03:44.690Z,102917.03
2019-02-26T12:06:14.949Z,102914.74
2019-02-26T12:08:46.958Z,102911.55
2019-02-26T12:11:19.854Z,102906.97
2019-02-26T12:13:50.205Z,102909.43
2019-02-26T12:16:20.775Z,102910.83
2019-02-26T12:18:51.125Z,102903.46
2019-02-26T12:21:21.504Z,102904.55
2019-02-26T12:23:51.746Z,102896.97
2019-02-26T12:26:25.346Z,102893.89
2019-02-26T12:28:54.807Z,102894.67
2019-02-26T12:31:28.406Z,102889.88
2019-02-26T12:33:56.983Z,102895.67
2019-02-26T12:36:29.930Z,102896.05
2019-02-26T12:39:00.012Z,102890.58
2019-02-26T12:41:33.348Z,102887.70
2019-02-26T12:44:08.133Z,102887.28
2019-02-26T12:46:35.556Z,102883.34
2019-02-26T12:49:06.724Z,102872.48
2019-02-26T12:51:37.300Z,102878.09
2019-02-26T12:54:10.048Z,102873.98
2019-02-26T12:56:39.583Z,102867.37
2019-02-26T12:59:09.608Z,102868.27
2019-02-26T13:01:42.180Z,102859.80
2019-02-26T13:04:12.983Z,102850.51
2019-02-26T13:06:47.735Z,102847.77
2019-02-26T13:09:14.767Z,102838.32
2019-02-26T13:12:00.543Z,102839.55
2019-02-26T13:14:16.500Z,102832.46
2019-02-26T13:16:48.614Z,102831.44
2019-02-26T13:19:21.846Z,102826.60
2019-02-26T13:21:51.782Z,102823.58
2019-02-26T13:24:26.102Z,102818.14
2019-02-26T13:26:54.495Z,102815.25
2019-02-26T13:29:25.266Z,102811.37
2019-02-26T13:31:59.601Z,102803.36
2019-02-26T13:34:27.669Z,102802.25
2019-02-26T13:36:59.583Z,102798.94
2019-02-26T13:39:38.661Z,102792.20
2019-02-26T13:42:05.711Z,102791.90
2019-02-26T13:44:34.426Z,102791.89
2019-02-26T13:47:06.497Z,102785.56
2019-02-26T13:49:36.632Z,102782.65
2019-02-26T13:52:06.610Z,102775.90
2019-02-26T13:54:36.909Z,102778.88
2019-02-26T13:57:09.119Z,102769.67
2019-02-26T13:59:38.908Z,102769.67
2019-02-26T14:02:09.518Z,102768.95
2019-02-26T14:04:39.593Z,102758.50
2019-02-26T14:07:09.583Z,102758.50
2019-02-26T14:09:39.569Z,102767.38
2019-02-26T14:12:09.577Z,102763.17
2019-02-26T14:14:39.540Z,102765.78
2019-02-26T14:17:12.158Z,102762.48
2019-02-26T14:19:42.386Z,102753.70
2019-02-26T14:22:12.602Z,102752.96
2019-02-26T14:24:42.935Z,102740.78
2019-02-26T14:27:13.467Z,102749.25
2019-02-26T14:29:43.493Z,102736.28
2019-02-26T14:32:13.415Z,102734.09
2019-02-26T14:34:43.789Z,102736.99
2019-02-26T14:37:13.731Z,102726.08
2019-02-26T14:39:43.681Z,102720.84
2019-02-26T14:42:13.697Z,102717.20
2019-02-26T14:44:43.658Z,102726.50
2019-02-26T14:47:13.705Z,102719.61
2019-02-26T14:49:43.715Z,102719.44
2019-02-26T14:52:13.758Z,102718.24
2019-02-26T14:54:43.735Z,102713.92
2019-02-26T14:57:14.303Z,102715.05
2019-02-26T14:59:44.270Z,102711.09
2019-02-26T15:02:14.248Z,102710.88
2019-02-26T15:04:45.865Z,102704.64
2019-02-26T15:07:16.184Z,102704.39
2019-02-26T15:09:46.460Z,102694.97
2019-02-26T15:12:16.808Z,102686.82
2019-02-26T15:14:48.814Z,102683.20
2019-02-26T15:17:19.723Z,102688.30
2019-02-26T15:19:53.138Z,102692.36
2019-02-26T15:22:21.644Z,102684.48
2019-02-26T15:24:51.596Z,102684.52
2019-02-26T15:27:21.978Z,102680.21
2019-02-26T15:29:52.663Z,102682.97
2019-02-26T15:32:22.836Z,102678.45
2019-02-26T15:34:53.150Z,102677.80
2019-02-26T15:37:23.133Z,102683.61
2019-02-26T15:39:53.114Z,102680.81
2019-02-26T15:42:23.133Z,102669.95
2019-02-26T15:44:53.789Z,102675.94
2019-02-26T15:47:23.674Z,102676.50
2019-02-26T15:49:53.643Z,102669.33
2019-02-26T15:52:24.313Z,102674.66
2019-02-26T15:54:57.509Z,102671.06
2019-02-26T15:57:26.176Z,102669.76
2019-02-26T15:59:56.078Z,102676.34
2019-02-26T16:02:28.576Z,102670.02
2019-02-26T16:04:58.741Z,102664.09
2019-02-26T16:07:28.852Z,102668.00
2019-02-26T16:09:58.804Z,102669.08
2019-02-26T16:12:28.780Z,102666.53
2019-02-26T16:14:58.780Z,102670.13
2019-02-26T16:17:29.440Z,102667.47
2019-02-26T16:19:59.666Z,102665.52
2019-02-26T16:22:29.639Z,102669.63
2019-02-26T16:24:59.770Z,102662.83
2019-02-26T16:27:37.561Z,102669.09
2019-02-26T16:30:02.800Z,102664.67
2019-02-26T16:32:32.755Z,102664.90
2019-02-26T16:35:03.069Z,102664.13
2019-02-26T16:37:33.065Z,102664.94
2019-02-26T16:40:03.067Z,102665.53
2019-02-26T16:42:33.228Z,102664.20
2019-02-26T16:45:03.220Z,102664.68
2019-02-26T16:47:33.925Z,102653.80
2019-02-26T16:50:12.483Z,102661.05
2019-02-26T16:52:36.115Z,102661.42
2019-02-26T16:55:06.567Z,102660.08
2019-02-26T16:57:36.563Z,102666.11
2019-02-26T17:00:07.741Z,102659.95
2019-02-26T17:02:39.046Z,102658.06
2019-02-26T17:05:09.684Z,102659.98
2019-02-26T17:07:42.528Z,102659.50
2019-02-26T17:10:14.649Z,102668.21
2019-02-26T17:12:46.252Z,102662.17
2019-02-26T17:15:19.202Z,102668.02
2019-02-26T17:17:49.554Z,102660.87
2019-02-26T17:20:22.628Z,102662.41
2019-02-26T17:22:51.242Z,102663.13
2019-02-26T17:25:21.485Z,102669.15
2019-02-26T17:27:51.466Z,102674.63
2019-02-26T17:30:23.903Z,102674.85
2019-02-26T17:32:53.101Z,102675.64
2019-02-26T17:35:23.124Z,102672.54
2019-02-26T17:37:53.422Z,102667.16
2019-02-26T17:40:23.392Z,102669.03
2019-02-26T17:42:54.364Z,102666.50
2019-02-26T17:45:24.609Z,102674.34
2019-02-26T17:47:56.789Z,102672.66
2019-02-26T17:50:28.852Z,102672.25
2019-02-26T17:52:58.738Z,102672.73
2019-02-26T17:55:28.864Z,102671.38
2019-02-26T17:58:00.679Z,102677.16
2019-02-26T18:00:32.261Z,102676.48
2019-02-26T18:03:06.455Z,102682.22
2019-02-26T18:05:39.387Z,102685.52
2019-02-26T18:08:07.816Z,102675.65
2019-02-26T18:10:37.776Z,102670.61
2019-02-26T18:13:07.760Z,102669.45
2019-02-26T18:15:37.745Z,102669.63
2019-02-26T18:18:08.125Z,102671.25
2019-02-26T18:20:40.775Z,102677.02
2019-02-26T18:23:10.908Z,102669.52
2019-02-26T18:25:41.125Z,102665.70
2019-02-26T18:28:11.471Z,102666.50
2019-02-26T18:30:41.786Z,102668.94
2019-02-26T18:33:11.909Z,102671.78
2019-02-26T18:35:42.033Z,102668.45
2019-02-26T18:38:11.993Z,102667.06
2019-02-26T18:40:41.984Z,102670.45
2019-02-26T18:43:14.311Z,102665.66
2019-02-26T18:45:44.022Z,102667.11
2019-02-26T18:48:15.086Z,102663.43
2019-02-26T18:50:45.667Z,102671.06
2019-02-26T18:53:15.596Z,102675.19
2019-02-26T18:55:46.974Z,102673.35
2019-02-26T18:58:17.298Z,102670.91
2019-02-26T19:00:48.276Z,102666.78
2019-02-26T19:03:18.309Z,102664.45
2019-02-26T19:05:48.556Z,102668.66
2019-02-26T19:08:19.085Z,102667.57
2019-02-26T19:10:52.821Z,102659.80
2019-02-26T19:13:21.982Z,102668.14
2019-02-26T19:15:52.009Z,102665.81
2019-02-26T19:18:22.344Z,102658.23
2019-02-26T19:20:52.774Z,102662.19
2019-02-26T19:23:22.995Z,102667.47
2019-02-26T19:25:53.021Z,102665.61
2019-02-26T19:28:25.634Z,102666.45
2019-02-26T19:30:54.574Z,102669.66
2019-02-26T19:33:24.884Z,102669.66
2019-02-26T19:35:55.752Z,102669.05
2019-02-26T19:38:27.669Z,102666.56
2019-02-26T19:40:58.701Z,102666.09
2019-02-26T19:43:28.915Z,102664.59
2019-02-26T19:45:59.999Z,102671.52
2019-02-26T19:48:30.945Z,102671.52
2019-02-26T19:51:01.605Z,102666.77
2019-02-26T19:53:34.432Z,102662.42
2019-02-26T19:56:03.403Z,102659.70
2019-02-26T19:58:33.370Z,102657.05
2019-02-26T20:01:03.998Z,102655.76
2019-02-26T20:03:39.956Z,102659.27
2019-02-26T20:06:05.616Z,102649.72
2019-02-26T20:08:35.502Z,102647.20
2019-02-26T20:11:05.456Z,102646.53
2019-02-26T20:13:35.613Z,102643.11
2019-02-26T20:16:05.594Z,102643.50
2019-02-26T20:18:36.076Z,102641.55
2019-02-26T20:21:06.036Z,102641.83
2019-02-26T20:23:36.032Z,102640.73
2019-02-26T20:26:07.722Z,102637.91
2019-02-26T20:28:38.088Z,102634.30
2019-02-26T20:31:08.336Z,102636.44
2019-02-26T20:33:38.302Z,102634.21
2019-02-26T20:36:08.247Z,102636.09
2019-02-26T20:38:38.252Z,102629.78
2019-02-26T20:41:08.195Z,102632.02
2019-02-26T20:43:38.075Z,102628.98
2019-02-26T20:46:08.017Z,102636.81
2019-02-26T20:48:38.107Z,102640.70
2019-02-26T20:51:08.121Z,102634.64
2019-02-26T20:53:38.899Z,102640.16
2019-02-26T20:56:09.506Z,102633.77
2019-02-26T20:58:39.471Z,102626.58
2019-02-26T21:01:09.794Z,102625.10
2019-02-26T21:03:40.913Z,102624.18
2019-02-26T21:06:11.020Z,102630.83
2019-02-26T21:08:42.659Z,102629.98
2019-02-26T21:11:12.606Z,102625.59
2019-02-26T21:13:42.617Z,102628.49
2019-02-26T21:16:12.888Z,102633.17
2019-02-26T21:18:42.933Z,102622.59
2019-02-26T21:21:14.114Z,102630.07
2019-02-26T21:23:44.682Z,102627.57
2019-02-26T21:26:14.627Z,102624.20
2019-02-26T21:28:44.682Z,102620.84
2019-02-26T21:31:16.721Z,102624.27
2019-02-26T21:33:46.446Z,102618.08
2019-02-26T21:36:16.697Z,102616.41
2019-02-26T21:38:46.752Z,102615.35
2019-02-26T21:41:16.720Z,102612.23
2019-02-26T21:43:46.725Z,102620.78
2019-02-26T21:46:16.705Z,102622.43
2019-02-26T21:48:47.085Z,102617.42
2019-02-26T21:51:17.059Z,102620.22
2019-02-26T21:53:49.188Z,102619.09
2019-02-26T21:56:19.071Z,102623.23
2019-02-26T21:58:48.878Z,102623.82
2019-02-26T22:01:18.852Z,102623.03
2019-02-26T22:03:48.941Z,102620.68
2019-02-26T22:06:19.241Z,102623.84
2019-02-26T22:08:49.148Z,102618.52
2019-02-26T22:11:19.195Z,102623.11
2019-02-26T22:13:50.149Z,102617.20
2019-02-26T22:16:20.545Z,102619.05
2019-02-26T22:18:50.609Z,102614.70
2019-02-26T22:21:20.599Z,102612.98
2019-02-26T22:23:50.530Z,102611.79
2019-02-26T22:26:20.484Z,102614.21
2019-02-26T22:28:50.468Z,102613.56
2019-02-26T22:31:20.477Z,102608.36
2019-02-26T22:33:50.464Z,102606.12
2019-02-26T22:36:20.421Z,102610.48
2019-02-26T22:38:50.408Z,102611.91
2019-02-26T22:41:20.708Z,102614.15
2019-02-26T22:43:50.718Z,102611.39
2019-02-26T22:46:20.680Z,102608.30
2019-02-26T22:48:50.646Z,102614.76
2019-02-26T22:51:20.899Z,102613.78
2019-02-26T22:53:50.916Z,102615.55
2019-02-26T22:56:21.924Z,102612.77
2019-02-26T22:58:52.507Z,102609.69
2019-02-26T23:01:36.216Z,102608.38
2019-02-26T23:04:06.069Z,102609.56
2019-02-26T23:06:36.098Z,102612.31
2019-02-26T23:09:09.550Z,102609.89
2019-02-26T23:11:41.419Z,102605.36
2019-02-26T23:14:11.463Z,102608.63
2019-02-26T23:16:41.798Z,102604.09
2019-02-26T23:19:12.218Z,102602.31
2019-02-26T23:21:43.212Z,102608.96
2019-02-26T23:24:13.497Z,102607.59
2019-02-26T23:26:43.642Z,102610.72
2019-02-26T23:29:13.687Z,102604.88
2019-02-26T23:31:43.708Z,102608.34
2019-02-26T23:34:14.754Z,102608.52
2019-02-26T23:36:44.703Z,102603.20
2019-02-26T23:39:15.523Z,102609.65
2019-02-26T23:41:47.390Z,102605.77
2019-02-26T23:44:18.121Z,102612.45
2019-02-26T23:46:48.623Z,102605.98
2019-02-26T23:49:18.981Z,102609.48
2019-02-26T23:51:50.977Z,102613.23
2019-02-26T23:54:21.018Z,102609.80
2019-02-26T23:56:52.088Z,102607.75
2019-02-26T23:59:22.688Z,102605.52
